createdAt,value
2023-03-07T00:01:25.268Z,11.20
2023-03-07T00:03:54.203Z,12.47
2023-03-07T00:06:23.270Z,10.80
2023-03-07T00:08:52.343Z,13.17
2023-03-07T00:11:21.210Z,12.93
2023-03-07T00:13:50.441Z,9.23
2023-03-07T00:16:20.898Z,13.60
2023-03-07T00:18:50.125Z,8.13
2023-03-07T00:21:24.291Z,11.80
2023-03-07T00:23:55.485Z,15.03
2023-03-07T00:26:24.394Z,13.03
2023-03-07T00:28:53.627Z,15.07
2023-03-07T00:31:24.297Z,14.10
2023-03-07T00:33:53.380Z,14.67
2023-03-07T00:36:22.726Z,13.83
2023-03-07T00:38:51.549Z,12.47
2023-03-07T00:41:21.382Z,12.87
2023-03-07T00:43:50.402Z,13.00
2023-03-07T00:46:20.666Z,10.03
2023-03-07T00:48:50.767Z,15.00
2023-03-07T00:51:20.259Z,9.13
2023-03-07T00:53:50.421Z,10.87
2023-03-07T00:56:20.705Z,12.63
2023-03-07T00:58:49.560Z,11.07
2023-03-07T01:01:18.871Z,17.27
2023-03-07T01:03:49.890Z,12.87
2023-03-07T01:06:20.355Z,9.50
2023-03-07T01:08:48.985Z,12.07
2023-03-07T01:11:17.900Z,11.73
2023-03-07T01:13:46.526Z,10.20
2023-03-07T01:16:15.871Z,7.60
2023-03-07T01:18:44.288Z,13.87
2023-03-07T01:21:13.796Z,12.30
2023-03-07T01:23:45.117Z,10.13
2023-03-07T01:26:14.504Z,7.40
2023-03-07T01:28:43.407Z,9.27
2023-03-07T01:31:12.503Z,7.27
2023-03-07T01:33:40.853Z,12.60
2023-03-07T01:36:15.918Z,10.17
2023-03-07T01:38:46.394Z,12.50
2023-03-07T01:41:15.470Z,10.43
2023-03-07T01:43:44.952Z,10.03
2023-03-07T01:46:27.748Z,9.80
2023-03-07T01:48:56.692Z,9.50
2023-03-07T01:51:25.779Z,12.67
2023-03-07T01:53:56.694Z,11.73
2023-03-07T01:56:25.238Z,11.00
2023-03-07T01:58:54.445Z,13.20
2023-03-07T02:01:23.560Z,9.97
2023-03-07T02:03:53.835Z,11.03
2023-03-07T02:06:23.289Z,8.30
2023-03-07T02:08:51.821Z,16.33
2023-03-07T02:11:22.196Z,8.70
2023-03-07T02:13:50.572Z,11.27
2023-03-07T02:16:19.104Z,12.90
2023-03-07T02:18:48.020Z,11.60
2023-03-07T02:21:18.706Z,11.33
2023-03-07T02:23:49.204Z,13.10
2023-03-07T02:26:18.863Z,12.60
2023-03-07T02:28:48.870Z,11.77
2023-03-07T02:31:18.645Z,8.90
2023-03-07T02:33:47.230Z,10.97
2023-03-07T02:36:16.719Z,7.50
2023-03-07T02:38:45.431Z,8.83
2023-03-07T02:41:14.057Z,11.33
2023-03-07T02:43:42.541Z,16.40
2023-03-07T02:46:12.316Z,9.00
2023-03-07T02:48:40.823Z,8.90
2023-03-07T02:51:09.134Z,10.20
2023-03-07T02:53:37.620Z,9.73
2023-03-07T02:56:06.540Z,12.20
2023-03-07T02:58:35.153Z,9.93
2023-03-07T03:01:03.849Z,13.67
2023-03-07T03:03:33.641Z,10.23
2023-03-07T03:06:02.008Z,11.50
2023-03-07T03:08:30.871Z,11.83
2023-03-07T03:10:59.438Z,13.47
2023-03-07T03:13:28.051Z,13.90
2023-03-07T03:15:57.475Z,12.00
2023-03-07T03:18:26.339Z,10.03
2023-03-07T03:20:56.144Z,11.00
2023-03-07T03:23:24.537Z,10.10
2023-03-07T03:25:59.132Z,9.77
2023-03-07T03:28:27.649Z,11.57
2023-03-07T03:30:59.383Z,11.53
2023-03-07T03:33:29.229Z,15.60
2023-03-07T03:35:59.354Z,15.10
2023-03-07T03:38:27.846Z,10.77
2023-03-07T03:40:56.273Z,11.67
2023-03-07T03:43:24.804Z,7.60
2023-03-07T03:45:56.695Z,12.00
2023-03-07T03:48:25.130Z,12.70
2023-03-07T03:50:53.653Z,11.20
2023-03-07T03:53:23.671Z,10.37
2023-03-07T03:55:52.200Z,10.67
2023-03-07T03:58:20.605Z,9.17
2023-03-07T04:00:48.950Z,11.50
2023-03-07T04:03:17.572Z,11.60
2023-03-07T04:05:45.946Z,8.07
2023-03-07T04:08:14.698Z,8.80
2023-03-07T04:10:45.482Z,9.90
2023-03-07T04:13:13.952Z,7.70
2023-03-07T04:15:42.347Z,10.47
2023-03-07T04:18:10.753Z,10.80
2023-03-07T04:20:39.803Z,8.63
2023-03-07T04:23:08.212Z,6.00
2023-03-07T04:25:36.935Z,4.60
2023-03-07T04:28:06.828Z,5.70
2023-03-07T04:30:35.215Z,10.27
2023-03-07T04:33:03.624Z,8.50
2023-03-07T04:35:32.160Z,10.77
2023-03-07T04:38:00.577Z,9.13
2023-03-07T04:40:28.944Z,12.07
2023-03-07T04:42:57.360Z,7.40
2023-03-07T04:45:27.279Z,10.17
2023-03-07T04:47:56.147Z,5.70
2023-03-07T04:50:24.787Z,6.67
2023-03-07T04:52:53.213Z,9.97
2023-03-07T04:55:21.685Z,5.53
2023-03-07T04:57:52.096Z,9.43
2023-03-07T05:00:21.093Z,5.77
2023-03-07T05:02:50.894Z,9.70
2023-03-07T05:05:19.416Z,8.13
2023-03-07T05:07:47.808Z,5.23
2023-03-07T05:10:16.778Z,4.37
2023-03-07T05:12:45.176Z,6.93
2023-03-07T05:15:13.628Z,4.97
2023-03-07T05:17:45.155Z,5.37
2023-03-07T05:20:15.185Z,7.00
2023-03-07T05:22:43.722Z,4.10
2023-03-07T05:25:12.122Z,4.37
2023-03-07T05:27:40.589Z,4.97
2023-03-07T05:30:11.389Z,5.20
2023-03-07T05:32:39.806Z,14.77
2023-03-07T05:35:09.573Z,8.30
2023-03-07T05:37:39.361Z,3.67
2023-03-07T05:40:10.995Z,7.07
2023-03-07T05:42:39.438Z,4.87
2023-03-07T05:45:08.687Z,2.20
2023-03-07T05:47:37.352Z,2.30
2023-03-07T05:50:06.277Z,3.47
2023-03-07T05:52:34.649Z,3.63
2023-03-07T05:55:04.541Z,2.47
2023-03-07T05:57:33.072Z,2.67
2023-03-07T06:00:01.554Z,3.20
2023-03-07T06:02:30.000Z,2.37
2023-03-07T06:04:58.385Z,5.40
2023-03-07T06:07:27.347Z,6.97
2023-03-07T06:09:55.712Z,2.23
2023-03-07T06:12:25.576Z,2.67
2023-03-07T06:14:53.921Z,3.23
2023-03-07T06:17:22.294Z,3.17
2023-03-07T06:19:50.736Z,3.17
2023-03-07T06:22:19.114Z,5.07
2023-03-07T06:24:47.490Z,4.90
2023-03-07T06:27:15.917Z,2.93
2023-03-07T06:29:45.933Z,6.50
2023-03-07T06:32:14.370Z,3.53
2023-03-07T06:34:42.939Z,2.57
2023-03-07T06:37:11.572Z,2.27
2023-03-07T06:39:40.152Z,5.70
2023-03-07T06:42:08.662Z,4.20
2023-03-07T06:44:37.314Z,5.70
2023-03-07T06:47:07.252Z,8.23
2023-03-07T06:49:36.060Z,3.53
2023-03-07T06:52:04.497Z,5.77
2023-03-07T06:54:33.144Z,2.50
2023-03-07T06:57:01.626Z,2.27
2023-03-07T06:59:30.134Z,3.90
2023-03-07T07:01:58.672Z,4.47
2023-03-07T07:04:28.673Z,3.90
2023-03-07T07:06:57.156Z,5.77
2023-03-07T07:09:25.645Z,1.23
2023-03-07T07:11:54.093Z,4.60
2023-03-07T07:14:23.340Z,1.70
2023-03-07T07:16:51.940Z,5.20
2023-03-07T07:19:20.439Z,4.03
2023-03-07T07:21:50.288Z,7.00
2023-03-07T07:24:18.748Z,2.73
2023-03-07T07:26:47.475Z,3.57
2023-03-07T07:29:17.212Z,3.13
2023-03-07T07:31:50.754Z,3.13
2023-03-07T07:34:19.243Z,1.87
2023-03-07T07:36:47.695Z,5.20
2023-03-07T07:39:17.791Z,3.80
2023-03-07T07:41:48.034Z,6.60
2023-03-07T07:44:16.912Z,3.17
2023-03-07T07:46:45.474Z,3.80
2023-03-07T07:49:14.105Z,4.37
2023-03-07T07:51:42.710Z,5.47
2023-03-07T07:54:11.196Z,3.00
2023-03-07T07:56:41.414Z,3.40
2023-03-07T07:59:09.923Z,1.97
2023-03-07T08:01:38.529Z,3.13
2023-03-07T08:04:07.142Z,2.00
2023-03-07T08:06:35.852Z,5.03
2023-03-07T08:09:05.657Z,6.33
2023-03-07T08:11:34.147Z,5.33
2023-03-07T08:14:04.366Z,4.73
2023-03-07T08:16:33.285Z,4.33
2023-03-07T08:19:02.853Z,4.90
2023-03-07T08:21:31.788Z,5.87
2023-03-07T08:24:04.254Z,4.10
2023-03-07T08:26:33.247Z,6.03
2023-03-07T08:29:02.046Z,4.27
2023-03-07T08:31:32.394Z,5.83
2023-03-07T08:34:01.897Z,2.40
2023-03-07T08:36:30.869Z,3.20
2023-03-07T08:38:59.443Z,4.50
2023-03-07T08:41:28.031Z,4.30
2023-03-07T08:43:56.406Z,3.73
2023-03-07T08:46:24.928Z,3.40
2023-03-07T08:48:54.918Z,6.63
2023-03-07T08:51:23.555Z,6.13
2023-03-07T08:53:52.371Z,7.00
2023-03-07T08:56:20.936Z,6.67
2023-03-07T08:58:49.436Z,3.40
2023-03-07T09:01:18.195Z,5.03
2023-03-07T09:03:46.678Z,4.70
2023-03-07T09:06:20.594Z,7.73
2023-03-07T09:08:49.106Z,11.53
2023-03-07T09:11:17.660Z,2.00
2023-03-07T09:13:52.421Z,4.23
2023-03-07T09:16:22.117Z,2.60
2023-03-07T09:18:50.792Z,2.37
2023-03-07T09:21:21.271Z,4.33
2023-03-07T09:23:50.113Z,6.67
2023-03-07T09:26:19.716Z,4.33
2023-03-07T09:28:48.506Z,5.97
2023-03-07T09:31:20.223Z,6.10
2023-03-07T09:33:55.181Z,4.73
2023-03-07T09:36:28.385Z,2.80
2023-03-07T09:38:59.201Z,2.27
2023-03-07T09:41:45.821Z,2.20
2023-03-07T09:44:16.813Z,3.60
2023-03-07T09:46:48.173Z,2.40
2023-03-07T09:49:20.502Z,3.97
2023-03-07T09:51:50.804Z,2.67
2023-03-07T09:54:19.582Z,2.13
2023-03-07T09:56:48.777Z,6.63
2023-03-07T09:59:23.744Z,2.43
2023-03-07T10:01:53.458Z,1.90
2023-03-07T10:04:23.821Z,1.27
2023-03-07T10:06:58.282Z,4.80
2023-03-07T10:09:30.292Z,6.47
2023-03-07T10:12:08.137Z,6.10
2023-03-07T10:14:40.822Z,2.10
2023-03-07T10:17:09.926Z,2.53
2023-03-07T10:19:39.002Z,2.03
2023-03-07T10:22:11.508Z,5.63
2023-03-07T10:24:45.612Z,4.37
2023-03-07T10:27:14.468Z,2.57
2023-03-07T10:29:45.086Z,4.47
2023-03-07T10:32:22.154Z,4.80
2023-03-07T10:34:51.715Z,1.90
2023-03-07T10:37:22.133Z,6.70
2023-03-07T10:39:52.339Z,2.77
2023-03-07T10:42:21.198Z,7.53
2023-03-07T10:44:51.273Z,4.53
2023-03-07T10:47:21.469Z,3.23
2023-03-07T10:49:50.535Z,1.63
2023-03-07T10:52:30.040Z,2.23
2023-03-07T10:54:59.730Z,3.57
2023-03-07T10:57:28.947Z,4.17
2023-03-07T10:59:57.524Z,2.53
2023-03-07T11:02:31.455Z,4.80
2023-03-07T11:05:00.736Z,6.17
2023-03-07T11:07:31.484Z,4.20
2023-03-07T11:10:00.175Z,2.60
2023-03-07T11:12:29.154Z,2.37
2023-03-07T11:14:59.154Z,4.47
2023-03-07T11:17:28.548Z,2.33
2023-03-07T11:19:57.101Z,3.07
2023-03-07T11:22:26.526Z,1.87
2023-03-07T11:24:57.569Z,2.87
2023-03-07T11:27:26.850Z,3.10
2023-03-07T11:30:28.662Z,4.50
2023-03-07T11:33:05.228Z,4.23
2023-03-07T11:35:42.790Z,1.93
2023-03-07T11:38:14.453Z,3.47
2023-03-07T11:40:46.981Z,3.47
2023-03-07T11:43:18.202Z,3.03
2023-03-07T11:45:49.465Z,2.47
2023-03-07T11:48:22.022Z,1.60
2023-03-07T11:50:51.356Z,4.50
2023-03-07T11:53:36.836Z,7.27
2023-03-07T11:56:13.259Z,3.40
2023-03-07T11:58:49.585Z,4.30
2023-03-07T12:01:19.070Z,8.20
2023-03-07T12:03:55.313Z,6.00
2023-03-07T12:06:26.782Z,3.03
2023-03-07T12:09:01.514Z,3.40
2023-03-07T12:11:34.127Z,4.17
2023-03-07T12:14:05.619Z,1.23
2023-03-07T12:16:39.275Z,8.03
2023-03-07T12:19:21.884Z,3.20
2023-03-07T12:21:59.540Z,3.70
2023-03-07T12:24:28.711Z,3.03
2023-03-07T12:27:00.558Z,5.07
2023-03-07T12:29:33.758Z,3.43
2023-03-07T12:32:02.932Z,3.67
2023-03-07T12:34:33.374Z,2.93
2023-03-07T12:37:03.496Z,4.00
2023-03-07T12:39:33.625Z,2.87
2023-03-07T12:42:04.235Z,7.40
2023-03-07T12:44:35.012Z,4.93
2023-03-07T12:47:04.905Z,3.67
2023-03-07T12:49:40.908Z,2.43
2023-03-07T12:52:17.621Z,2.67
2023-03-07T12:54:47.802Z,4.53
2023-03-07T12:57:18.774Z,1.53
2023-03-07T12:59:50.757Z,4.30
2023-03-07T13:02:22.092Z,3.43
2023-03-07T13:04:50.784Z,3.77
2023-03-07T13:07:19.618Z,2.87
2023-03-07T13:09:48.356Z,2.90
2023-03-07T13:12:31.302Z,2.30
2023-03-07T13:15:00.018Z,4.70
2023-03-07T13:17:47.134Z,2.97
2023-03-07T13:20:32.122Z,5.10
2023-03-07T13:23:01.833Z,3.50
2023-03-07T13:25:57.452Z,3.73
2023-03-07T13:28:53.226Z,1.37
2023-03-07T13:31:37.111Z,3.03
2023-03-07T13:34:33.162Z,2.07
2023-03-07T13:37:03.668Z,2.60
2023-03-07T13:39:38.671Z,3.13
2023-03-07T13:42:09.999Z,3.87
2023-03-07T13:44:39.351Z,1.67
2023-03-07T13:47:24.636Z,1.67
2023-03-07T13:49:54.115Z,3.30
2023-03-07T13:52:31.181Z,4.50
2023-03-07T13:55:00.506Z,4.17
2023-03-07T13:57:31.857Z,6.90
2023-03-07T14:00:01.399Z,3.83
2023-03-07T14:02:30.952Z,6.43
2023-03-07T14:04:59.715Z,3.20
2023-03-07T14:07:32.462Z,3.93
2023-03-07T14:10:09.816Z,2.43
2023-03-07T14:12:47.528Z,3.93
2023-03-07T14:15:23.535Z,3.27
2023-03-07T14:17:57.079Z,4.37
2023-03-07T14:20:26.594Z,2.93
2023-03-07T14:23:03.600Z,1.93
2023-03-07T14:25:33.433Z,2.77
2023-03-07T14:28:03.278Z,3.53
2023-03-07T14:30:32.535Z,5.37
2023-03-07T14:33:00.986Z,5.47
2023-03-07T14:35:40.070Z,4.67
2023-03-07T14:38:10.816Z,1.80
2023-03-07T14:40:43.466Z,3.10
2023-03-07T14:43:17.512Z,1.40
2023-03-07T14:45:46.756Z,5.53
2023-03-07T14:48:25.906Z,5.70
2023-03-07T14:50:54.482Z,2.03
2023-03-07T14:53:25.701Z,3.47
2023-03-07T14:55:54.804Z,2.33
2023-03-07T14:58:24.956Z,5.17
2023-03-07T15:01:00.072Z,4.57
2023-03-07T15:03:29.145Z,3.20
2023-03-07T15:05:57.881Z,4.33
2023-03-07T15:08:28.531Z,2.50
2023-03-07T15:10:57.964Z,2.67
2023-03-07T15:13:27.467Z,6.50
2023-03-07T15:15:57.336Z,3.43
2023-03-07T15:18:26.831Z,5.03
2023-03-07T15:20:55.428Z,2.70
2023-03-07T15:23:24.361Z,2.63
2023-03-07T15:25:54.481Z,1.87
2023-03-07T15:28:23.162Z,2.70
2023-03-07T15:30:56.598Z,2.50
2023-03-07T15:33:26.403Z,3.73
2023-03-07T15:36:13.697Z,4.33
2023-03-07T15:38:42.614Z,2.53
2023-03-07T15:41:26.043Z,7.00
2023-03-07T15:44:06.707Z,6.67
2023-03-07T15:46:35.290Z,4.97
2023-03-07T15:49:03.864Z,3.47
2023-03-07T15:51:36.222Z,3.60
2023-03-07T15:54:11.611Z,4.10
2023-03-07T15:56:41.447Z,1.33
2023-03-07T15:59:19.229Z,4.73
2023-03-07T16:01:48.540Z,3.50
2023-03-07T16:04:37.912Z,2.10
2023-03-07T16:07:07.890Z,3.57
2023-03-07T16:09:39.445Z,1.77
2023-03-07T16:12:11.045Z,2.57
2023-03-07T16:14:40.935Z,3.60
2023-03-07T16:17:18.994Z,3.17
2023-03-07T16:19:47.439Z,10.47
2023-03-07T16:22:16.249Z,3.10
2023-03-07T16:24:44.774Z,4.77
2023-03-07T16:27:14.368Z,1.53
2023-03-07T16:29:44.180Z,2.40
2023-03-07T16:32:13.100Z,4.93
2023-03-07T16:34:43.354Z,5.37
2023-03-07T16:37:13.371Z,2.87
2023-03-07T16:39:42.098Z,2.70
2023-03-07T16:42:15.448Z,2.63
2023-03-07T16:44:45.248Z,2.80
2023-03-07T16:47:14.640Z,4.47
2023-03-07T16:49:43.100Z,8.80
2023-03-07T16:52:12.318Z,3.17
2023-03-07T16:54:40.894Z,6.30
2023-03-07T16:57:09.280Z,1.03
2023-03-07T16:59:37.798Z,5.90
2023-03-07T17:02:13.788Z,4.90
2023-03-07T17:04:44.171Z,2.30
2023-03-07T17:07:19.036Z,2.70
2023-03-07T17:09:49.197Z,5.13
2023-03-07T17:12:17.664Z,3.97
2023-03-07T17:14:46.358Z,7.67
2023-03-07T17:17:18.260Z,3.50
2023-03-07T17:19:46.916Z,4.10
2023-03-07T17:22:15.469Z,3.70
2023-03-07T17:24:43.996Z,3.47
2023-03-07T17:27:15.396Z,6.43
2023-03-07T17:29:47.667Z,4.83
2023-03-07T17:32:17.869Z,3.20
2023-03-07T17:34:46.727Z,8.10
2023-03-07T17:37:15.340Z,3.67
2023-03-07T17:39:43.841Z,4.07
2023-03-07T17:42:12.648Z,4.97
2023-03-07T17:44:41.694Z,5.50
2023-03-07T17:47:10.256Z,2.30
2023-03-07T17:49:40.403Z,4.43
2023-03-07T17:52:08.852Z,7.93
2023-03-07T17:54:37.309Z,1.53
2023-03-07T17:57:06.371Z,4.23
2023-03-07T17:59:34.982Z,5.47
2023-03-07T18:02:05.242Z,5.50
2023-03-07T18:04:33.596Z,1.37
2023-03-07T18:07:03.862Z,2.63
2023-03-07T18:09:33.623Z,2.20
2023-03-07T18:12:02.218Z,3.30
2023-03-07T18:14:30.649Z,3.43
2023-03-07T18:16:59.363Z,3.07
2023-03-07T18:19:27.974Z,1.50
2023-03-07T18:21:56.454Z,4.63
2023-03-07T18:24:27.387Z,4.07
2023-03-07T18:26:56.114Z,4.13
2023-03-07T18:29:24.553Z,2.20
2023-03-07T18:31:53.111Z,4.43
2023-03-07T18:34:21.549Z,5.33
2023-03-07T18:36:53.002Z,3.80
2023-03-07T18:39:21.529Z,2.30
2023-03-07T18:41:51.365Z,1.23
2023-03-07T18:44:19.768Z,2.13
2023-03-07T18:46:48.225Z,3.27
2023-03-07T18:49:17.824Z,4.53
2023-03-07T18:51:48.484Z,3.57
2023-03-07T18:54:16.866Z,1.50
2023-03-07T18:56:46.767Z,6.00
2023-03-07T18:59:17.425Z,4.87
2023-03-07T19:01:46.053Z,3.00
2023-03-07T19:04:15.256Z,5.70
2023-03-07T19:06:45.320Z,4.70
2023-03-07T19:09:15.735Z,3.53
2023-03-07T19:11:44.286Z,4.53
2023-03-07T19:14:12.804Z,5.17
2023-03-07T19:16:42.735Z,6.03
2023-03-07T19:19:11.311Z,2.00
2023-03-07T19:21:39.892Z,5.37
2023-03-07T19:24:10.144Z,5.47
2023-03-07T19:26:38.522Z,2.00
2023-03-07T19:29:07.071Z,2.00
2023-03-07T19:31:35.608Z,2.10
2023-03-07T19:34:06.423Z,2.93
2023-03-07T19:36:36.961Z,4.37
2023-03-07T19:39:05.970Z,4.17
2023-03-07T19:41:35.939Z,4.57
2023-03-07T19:44:06.553Z,2.87
2023-03-07T19:46:36.254Z,2.87
2023-03-07T19:49:06.611Z,3.33
2023-03-07T19:51:35.543Z,1.43
2023-03-07T19:54:04.357Z,2.73
2023-03-07T19:56:32.870Z,2.67
2023-03-07T19:59:04.370Z,2.83
2023-03-07T20:01:32.891Z,3.97
2023-03-07T20:04:01.891Z,1.23
2023-03-07T20:06:35.379Z,1.33
2023-03-07T20:09:03.848Z,2.87
2023-03-07T20:11:43.540Z,3.53
2023-03-07T20:14:12.291Z,2.33
2023-03-07T20:16:40.779Z,5.40
2023-03-07T20:19:09.807Z,3.67
2023-03-07T20:21:40.363Z,1.67
2023-03-07T20:24:09.204Z,5.97
2023-03-07T20:26:38.139Z,4.23
2023-03-07T20:29:07.216Z,3.10
2023-03-07T20:31:36.551Z,2.03
2023-03-07T20:34:05.024Z,2.90
2023-03-07T20:36:34.042Z,4.53
2023-03-07T20:39:04.286Z,3.03
2023-03-07T20:41:33.137Z,5.17
2023-03-07T20:44:02.446Z,4.07
2023-03-07T20:46:32.607Z,5.67
2023-03-07T20:49:01.373Z,2.77
2023-03-07T20:51:30.468Z,4.47
2023-03-07T20:53:59.273Z,4.83
2023-03-07T20:56:29.464Z,5.07
2023-03-07T20:58:58.070Z,3.80
2023-03-07T21:01:27.115Z,8.63
2023-03-07T21:03:55.781Z,7.13
2023-03-07T21:06:24.284Z,5.77
2023-03-07T21:08:53.195Z,9.33
2023-03-07T21:11:22.104Z,7.97
2023-03-07T21:13:52.164Z,8.40
2023-03-07T21:16:21.235Z,10.03
2023-03-07T21:18:49.949Z,8.50
2023-03-07T21:21:19.131Z,8.20
2023-03-07T21:23:47.898Z,8.33
2023-03-07T21:26:17.010Z,12.20
2023-03-07T21:28:45.621Z,6.37
2023-03-07T21:31:18.451Z,6.07
2023-03-07T21:33:47.682Z,5.23
2023-03-07T21:36:16.974Z,5.07
2023-03-07T21:38:46.100Z,4.87
2023-03-07T21:41:14.645Z,6.93
2023-03-07T21:43:43.260Z,5.20
2023-03-07T21:46:12.305Z,3.17
2023-03-07T21:48:42.265Z,5.57
2023-03-07T21:51:11.388Z,4.77
2023-03-07T21:53:39.896Z,2.83
2023-03-07T21:56:09.221Z,6.17
2023-03-07T21:58:38.180Z,6.33
2023-03-07T22:01:11.288Z,7.43
2023-03-07T22:03:39.953Z,3.43
2023-03-07T22:06:10.273Z,5.83
2023-03-07T22:08:38.824Z,5.43
2023-03-07T22:11:08.069Z,7.50
2023-03-07T22:13:37.189Z,8.67
2023-03-07T22:16:06.270Z,5.07
2023-03-07T22:18:35.350Z,6.43
2023-03-07T22:21:07.256Z,3.87
2023-03-07T22:23:37.879Z,7.73
2023-03-07T22:26:06.748Z,6.27
2023-03-07T22:28:35.208Z,5.87
2023-03-07T22:31:04.328Z,7.80
2023-03-07T22:33:32.899Z,4.93
2023-03-07T22:36:02.753Z,7.33
2023-03-07T22:38:31.359Z,4.90
2023-03-07T22:41:04.178Z,9.07
2023-03-07T22:43:33.228Z,5.33
2023-03-07T22:46:01.790Z,5.73
2023-03-07T22:48:30.394Z,5.33
2023-03-07T22:50:58.928Z,8.23
2023-03-07T22:53:30.915Z,6.50
2023-03-07T22:56:00.285Z,4.20
2023-03-07T22:58:30.488Z,6.20
2023-03-07T23:00:58.978Z,7.63
2023-03-07T23:03:27.496Z,8.70
2023-03-07T23:06:02.187Z,5.13
2023-03-07T23:08:30.525Z,5.43
2023-03-07T23:11:02.170Z,5.10
2023-03-07T23:13:31.948Z,4.93
2023-03-07T23:16:01.464Z,9.30
2023-03-07T23:18:30.382Z,6.57
2023-03-07T23:20:59.353Z,7.93
2023-03-07T23:23:27.970Z,8.53
2023-03-07T23:25:56.480Z,7.23
2023-03-07T23:28:27.777Z,3.93
2023-03-07T23:30:57.643Z,4.73
2023-03-07T23:33:26.527Z,4.50
2023-03-07T23:35:55.052Z,4.87
2023-03-07T23:38:23.536Z,6.83
2023-03-07T23:40:52.220Z,8.70
2023-03-07T23:43:20.682Z,4.40
2023-03-07T23:45:49.081Z,4.93
2023-03-07T23:48:19.090Z,6.23
2023-03-07T23:50:49.683Z,4.60
2023-03-07T23:53:18.148Z,5.67
2023-03-07T23:55:46.594Z,4.90
2023-03-07T23:58:15.251Z,7.00
